Time;durP1;ratioP1;P1;durP2;ratioP2;P2;SDS_P1;SDS_P2;PMS_P1;PMS_P2;Temp;Humidity;BMP_temperature;BMP_pressure;BME280_temperature;BME280_humidity;BME280_pressure;Samples;Min_cycle;Max_cycle;Signal;HPM_P1;HPM_P2
2023/09/04 00:01:00;;;;;;;8.35;5.47;;;;;;;;;;5091215;28;20522;-67
2023/09/04 00:03:27;;;;;;;7.65;4.82;;;;;;;;;;5091254;28;20131;-66
2023/09/04 00:05:54;;;;;;;8.25;4.85;;;;;;;;;;5090798;28;20089;-66
2023/09/04 00:08:20;;;;;;;8.45;5.10;;;;;;;;;;5091048;28;20130;-67
2023/09/04 00:10:47;;;;;;;10.40;5.85;;;;;;;;;;5089175;28;20036;-67
2023/09/04 00:13:14;;;;;;;8.70;5.57;;;;;;;;;;5091379;28;20046;-66
2023/09/04 00:15:40;;;;;;;8.15;4.85;;;;;;;;;;5091357;28;20133;-67
2023/09/04 00:18:07;;;;;;;9.40;5.20;;;;;;;;;;5091173;28;20069;-67
2023/09/04 00:20:33;;;;;;;10.95;5.45;;;;;;;;;;5090516;28;20498;-66
2023/09/04 00:23:00;;;;;;;10.27;5.20;;;;;;;;;;5090847;28;20048;-66
2023/09/04 00:25:27;;;;;;;6.55;4.57;;;;;;;;;;5090292;28;20044;-67
2023/09/04 00:27:55;;;;;;;6.85;4.85;;;;;;;;;;5090727;28;20136;-67
2023/09/04 00:30:22;;;;;;;11.07;5.32;;;;;;;;;;5090638;28;20047;-66
2023/09/04 00:32:48;;;;;;;6.55;4.88;;;;;;;;;;5090858;28;20044;-67
2023/09/04 00:35:15;;;;;;;6.47;4.43;;;;;;;;;;5090207;28;20519;-68
2023/09/04 00:37:41;;;;;;;9.70;4.45;;;;;;;;;;5090977;28;20127;-66
2023/09/04 00:40:08;;;;;;;8.98;4.75;;;;;;;;;;5091409;28;20044;-66
2023/09/04 00:42:35;;;;;;;7.68;5.55;;;;;;;;;;5090978;28;20040;-66
2023/09/04 00:45:01;;;;;;;8.85;5.30;;;;;;;;;;5090510;28;20079;-69
2023/09/04 00:47:29;;;;;;;9.02;5.53;;;;;;;;;;5090397;28;20123;-66
2023/09/04 00:49:56;;;;;;;9.15;5.05;;;;;;;;;;5090645;28;20051;-68
2023/09/04 00:52:23;;;;;;;7.15;4.78;;;;;;;;;;5090204;28;20625;-67
2023/09/04 00:54:50;;;;;;;8.30;5.38;;;;;;;;;;5090382;28;20122;-66
2023/09/04 00:57:18;;;;;;;7.40;5.57;;;;;;;;;;5090404;28;20127;-67
2023/09/04 00:59:45;;;;;;;7.95;5.22;;;;;;;;;;5090258;28;20086;-66
2023/09/04 01:02:13;;;;;;;9.27;5.55;;;;;;;;;;5090761;28;20469;-66
2023/09/04 01:04:40;;;;;;;6.88;5.60;;;;;;;;;;5089783;28;20043;-67
2023/09/04 01:07:06;;;;;;;7.50;4.65;;;;;;;;;;5090544;28;20126;-66
2023/09/04 01:09:33;;;;;;;9.75;6.15;;;;;;;;;;5090089;28;20073;-66
2023/09/04 01:12:01;;;;;;;9.85;5.70;;;;;;;;;;5090703;28;20052;-66
2023/09/04 01:14:28;;;;;;;6.70;5.72;;;;;;;;;;5091052;28;20036;-67
2023/09/04 01:16:55;;;;;;;9.93;5.28;;;;;;;;;;5091392;28;20086;-66
2023/09/04 01:19:21;;;;;;;11.23;5.65;;;;;;;;;;5089875;28;20036;-66
2023/09/04 01:21:48;;;;;;;7.78;6.20;;;;;;;;;;5090447;28;20125;-67
2023/09/04 01:24:14;;;;;;;9.23;6.80;;;;;;;;;;5089635;28;20055;-67
2023/09/04 01:27:13;;;;;;;7.72;5.57;;;;;;;;;;5090476;28;20051;-66
2023/09/04 01:29:44;;;;;;;8.20;5.75;;;;;;;;;;5066505;28;20578;-66
2023/09/04 01:32:18;;;;;;;8.93;5.10;;;;;;;;;;5089813;28;20078;-67
2023/09/04 01:34:49;;;;;;;7.80;5.65;;;;;;;;;;5090218;28;20052;-67
2023/09/04 01:37:16;;;;;;;5.97;5.38;;;;;;;;;;5089907;28;20048;-67
2023/09/04 01:39:43;;;;;;;9.38;5.63;;;;;;;;;;5093002;28;20131;-66
2023/09/04 01:42:09;;;;;;;12.77;5.35;;;;;;;;;;5093526;28;20098;-66
2023/09/04 01:44:36;;;;;;;7.78;5.30;;;;;;;;;;5092537;28;20135;-66
2023/09/04 01:47:02;;;;;;;7.75;5.47;;;;;;;;;;5093284;28;20044;-68
2023/09/04 01:49:28;;;;;;;8.23;5.38;;;;;;;;;;5092126;28;20071;-66
2023/09/04 01:51:58;;;;;;;10.18;5.90;;;;;;;;;;5093506;28;20486;-67
2023/09/04 01:54:24;;;;;;;7.32;5.72;;;;;;;;;;5093108;28;20089;-68
2023/09/04 01:56:51;;;;;;;11.18;6.82;;;;;;;;;;5093409;28;20079;-66
2023/09/04 01:59:17;;;;;;;11.65;5.78;;;;;;;;;;5093003;28;20048;-66
2023/09/04 02:01:43;;;;;;;7.72;5.50;;;;;;;;;;5093698;28;20127;-66
2023/09/04 02:04:10;;;;;;;7.20;5.82;;;;;;;;;;5092988;28;20484;-68
2023/09/04 02:06:36;;;;;;;7.63;5.85;;;;;;;;;;5093371;28;20040;-68
2023/09/04 02:09:06;;;;;;;8.07;5.97;;;;;;;;;;5092585;28;20119;-67
2023/09/04 02:11:32;;;;;;;8.40;5.82;;;;;;;;;;5093396;28;20638;-66
2023/09/04 02:13:59;;;;;;;7.40;5.85;;;;;;;;;;5092424;28;20396;-67
2023/09/04 02:16:25;;;;;;;7.93;5.03;;;;;;;;;;5093377;28;20052;-67
2023/09/04 02:18:53;;;;;;;7.93;4.85;;;;;;;;;;5092716;28;20036;-66
2023/09/04 02:21:20;;;;;;;6.28;4.53;;;;;;;;;;5093466;28;20456;-66
2023/09/04 02:23:46;;;;;;;6.95;5.20;;;;;;;;;;5092580;28;20128;-68
2023/09/04 02:26:13;;;;;;;8.32;5.45;;;;;;;;;;5093139;28;20047;-66
2023/09/04 02:28:39;;;;;;;9.60;5.90;;;;;;;;;;5092643;28;20036;-67
2023/09/04 02:31:06;;;;;;;8.00;6.35;;;;;;;;;;5092299;28;20091;-66
2023/09/04 02:33:36;;;;;;;6.45;5.50;;;;;;;;;;5092437;28;20040;-67
2023/09/04 02:36:03;;;;;;;8.55;5.95;;;;;;;;;;5092587;28;20080;-66
2023/09/04 02:38:30;;;;;;;8.32;6.55;;;;;;;;;;5092507;28;20048;-66
2023/09/04 02:40:56;;;;;;;8.35;5.43;;;;;;;;;;5092624;28;20091;-67
2023/09/04 02:43:23;;;;;;;8.13;6.38;;;;;;;;;;5092218;28;20102;-67
2023/09/04 02:45:49;;;;;;;8.50;6.07;;;;;;;;;;5092357;28;20600;-66
2023/09/04 02:48:16;;;;;;;8.90;6.05;;;;;;;;;;5092264;28;20089;-67
2023/09/04 02:50:42;;;;;;;11.90;6.53;;;;;;;;;;5090619;28;20088;-66
2023/09/04 02:53:09;;;;;;;17.38;7.68;;;;;;;;;;5092614;28;20051;-67
2023/09/04 02:55:36;;;;;;;8.30;6.53;;;;;;;;;;5072354;28;20037;-66
2023/09/04 02:58:02;;;;;;;8.60;5.80;;;;;;;;;;5081424;28;20044;-66
2023/09/04 03:00:29;;;;;;;8.95;5.80;;;;;;;;;;5092353;28;20520;-67
2023/09/04 03:02:55;;;;;;;10.82;5.85;;;;;;;;;;5092014;28;20135;-66
2023/09/04 03:05:24;;;;;;;7.93;6.25;;;;;;;;;;5092829;28;20036;-67
2023/09/04 03:07:51;;;;;;;6.97;5.82;;;;;;;;;;5092015;28;20090;-66
2023/09/04 03:10:18;;;;;;;7.25;5.85;;;;;;;;;;5092144;28;20520;-66
2023/09/04 03:12:44;;;;;;;9.95;6.85;;;;;;;;;;5091637;28;20082;-67
2023/09/04 03:15:10;;;;;;;10.98;6.60;;;;;;;;;;5092225;28;20077;-69
2023/09/04 03:17:37;;;;;;;9.10;5.75;;;;;;;;;;5092197;28;20101;-66
2023/09/04 03:20:05;;;;;;;9.27;6.78;;;;;;;;;;5092266;28;20097;-68
2023/09/04 03:22:31;;;;;;;9.07;6.82;;;;;;;;;;5091714;28;20607;-66
2023/09/04 03:24:58;;;;;;;15.60;8.15;;;;;;;;;;5091421;28;20448;-67
2023/09/04 03:27:25;;;;;;;9.55;7.40;;;;;;;;;;5091635;28;20035;-67
2023/09/04 03:29:52;;;;;;;10.90;6.65;;;;;;;;;;5091022;28;20648;-66
2023/09/04 03:32:18;;;;;;;11.93;7.07;;;;;;;;;;5091618;28;20115;-68
2023/09/04 03:34:45;;;;;;;9.65;7.43;;;;;;;;;;5091178;28;20242;-66
2023/09/04 03:37:11;;;;;;;8.75;7.43;;;;;;;;;;5092243;28;20075;-71
2023/09/04 03:39:38;;;;;;;10.05;6.88;;;;;;;;;;5092279;28;20079;-67
2023/09/04 03:42:05;;;;;;;10.90;6.80;;;;;;;;;;5092188;28;20070;-69
2023/09/04 03:44:31;;;;;;;9.13;7.05;;;;;;;;;;5091911;28;20051;-67
2023/09/04 03:46:58;;;;;;;9.55;6.85;;;;;;;;;;5092011;28;20075;-66
2023/09/04 03:49:24;;;;;;;10.07;6.50;;;;;;;;;;5090810;28;20089;-66
2023/09/04 03:51:51;;;;;;;8.13;6.55;;;;;;;;;;5091586;28;20040;-68
2023/09/04 03:54:17;;;;;;;10.70;6.20;;;;;;;;;;5090740;28;20127;-67
2023/09/04 03:56:44;;;;;;;8.27;5.95;;;;;;;;;;5091337;28;20074;-66
2023/09/04 03:59:10;;;;;;;8.35;6.85;;;;;;;;;;5090739;28;20101;-66
2023/09/04 04:01:37;;;;;;;7.97;6.35;;;;;;;;;;5090630;28;20071;-66
2023/09/04 04:04:04;;;;;;;8.77;6.63;;;;;;;;;;5090820;28;20040;-67
2023/09/04 04:06:30;;;;;;;8.23;6.45;;;;;;;;;;5089539;28;20044;-67
2023/09/04 04:08:57;;;;;;;7.70;5.85;;;;;;;;;;5091634;28;20074;-68
2023/09/04 04:11:23;;;;;;;7.75;5.15;;;;;;;;;;5091773;28;20056;-67
2023/09/04 04:13:50;;;;;;;11.40;6.75;;;;;;;;;;5090751;28;20040;-66
2023/09/04 04:16:16;;;;;;;6.80;5.93;;;;;;;;;;5090669;28;20436;-67
2023/09/04 04:18:43;;;;;;;8.13;5.88;;;;;;;;;;5090654;28;20040;-66
2023/09/04 04:21:09;;;;;;;8.23;6.78;;;;;;;;;;5090616;28;20072;-68
2023/09/04 04:23:36;;;;;;;8.68;6.50;;;;;;;;;;5089353;28;20079;-67
2023/09/04 04:26:03;;;;;;;8.77;6.57;;;;;;;;;;5090709;28;20079;-66
2023/09/04 04:28:29;;;;;;;7.47;5.90;;;;;;;;;;5090900;28;20062;-66
2023/09/04 04:30:57;;;;;;;10.18;7.18;;;;;;;;;;5090040;28;20109;-67
2023/09/04 04:33:23;;;;;;;9.23;5.95;;;;;;;;;;5090619;28;20702;-66
2023/09/04 04:35:57;;;;;;;8.07;6.70;;;;;;;;;;5090744;28;20048;-68
2023/09/04 04:38:24;;;;;;;8.82;6.65;;;;;;;;;;5090302;28;20044;-66
2023/09/04 04:40:51;;;;;;;12.82;7.63;;;;;;;;;;5091111;28;20373;-66
2023/09/04 04:43:18;;;;;;;13.85;6.60;;;;;;;;;;5090312;28;20090;-67
2023/09/04 04:45:44;;;;;;;10.40;7.43;;;;;;;;;;5091076;28;20090;-67
2023/09/04 04:48:11;;;;;;;13.43;7.38;;;;;;;;;;5089874;28;20052;-66
2023/09/04 04:50:37;;;;;;;13.63;8.10;;;;;;;;;;5091070;28;20082;-66
2023/09/04 04:53:04;;;;;;;11.25;7.68;;;;;;;;;;5090081;28;20123;-68
2023/09/04 04:55:30;;;;;;;13.40;7.28;;;;;;;;;;5090323;28;20472;-67
2023/09/04 04:57:56;;;;;;;10.90;7.25;;;;;;;;;;5089751;28;20036;-67
2023/09/04 05:00:23;;;;;;;11.07;8.13;;;;;;;;;;5090474;28;20119;-66
2023/09/04 05:02:49;;;;;;;15.25;7.95;;;;;;;;;;5090066;28;20108;-67
2023/09/04 05:05:16;;;;;;;11.45;7.53;;;;;;;;;;5090015;28;20105;-66
2023/09/04 05:07:42;;;;;;;14.82;7.85;;;;;;;;;;5090139;28;20097;-66
2023/09/04 05:10:09;;;;;;;12.38;7.00;;;;;;;;;;5090167;28;20135;-67
2023/09/04 05:12:36;;;;;;;13.43;6.43;;;;;;;;;;5090228;28;20044;-66
2023/09/04 05:15:04;;;;;;;14.75;7.78;;;;;;;;;;5093742;28;20049;-67
2023/09/04 05:17:30;;;;;;;10.55;7.93;;;;;;;;;;5094364;28;20668;-66
2023/09/04 05:19:57;;;;;;;14.10;7.78;;;;;;;;;;5093638;28;20047;-66
2023/09/04 05:22:23;;;;;;;9.80;7.85;;;;;;;;;;5094520;28;20044;-66
2023/09/04 05:24:49;;;;;;;18.60;7.72;;;;;;;;;;5093852;28;20079;-67
2023/09/04 05:27:16;;;;;;;15.93;7.72;;;;;;;;;;5094350;28;20083;-66
2023/09/04 05:29:42;;;;;;;19.23;9.00;;;;;;;;;;5093311;28;20097;-67
2023/09/04 05:32:09;;;;;;;16.50;8.25;;;;;;;;;;5094185;28;20492;-67
2023/09/04 05:34:39;;;;;;;11.80;7.97;;;;;;;;;;5093397;28;20046;-67
2023/09/04 05:37:09;;;;;;;13.93;9.25;;;;;;;;;;5093867;28;20455;-66
2023/09/04 05:39:35;;;;;;;13.52;7.97;;;;;;;;;;5093653;28;20115;-66
2023/09/04 05:42:02;;;;;;;18.17;8.38;;;;;;;;;;5093483;28;20048;-67
2023/09/04 05:44:28;;;;;;;10.05;7.10;;;;;;;;;;5093407;28;20459;-66
2023/09/04 05:46:58;;;;;;;12.85;7.70;;;;;;;;;;5093667;28;20032;-66
2023/09/04 05:49:25;;;;;;;17.80;7.15;;;;;;;;;;5093696;28;20036;-66
2023/09/04 05:51:52;;;;;;;10.95;7.22;;;;;;;;;;5093481;28;20164;-66
2023/09/04 05:54:19;;;;;;;9.80;6.88;;;;;;;;;;5093749;28;20119;-67
2023/09/04 05:56:45;;;;;;;10.77;7.43;;;;;;;;;;5093251;28;20048;-67
2023/09/04 05:59:14;;;;;;;11.63;7.43;;;;;;;;;;5093183;28;20050;-67
2023/09/04 06:01:40;;;;;;;12.73;8.52;;;;;;;;;;5094001;28;20040;-67
2023/09/04 06:04:07;;;;;;;11.90;6.55;;;;;;;;;;5093044;28;20166;-66
2023/09/04 06:06:33;;;;;;;10.55;8.02;;;;;;;;;;5093595;28;20072;-68
2023/09/04 06:09:00;;;;;;;10.25;7.25;;;;;;;;;;5092693;28;20176;-68
2023/09/04 06:11:26;;;;;;;9.68;6.97;;;;;;;;;;5091800;28;20082;-66
2023/09/04 06:13:53;;;;;;;17.27;7.85;;;;;;;;;;5092687;28;20079;-68
2023/09/04 06:16:19;;;;;;;13.77;8.13;;;;;;;;;;5093014;28;20036;-67
2023/09/04 06:18:46;;;;;;;13.20;6.93;;;;;;;;;;5092499;28;20048;-67
2023/09/04 06:21:12;;;;;;;14.05;8.38;;;;;;;;;;5093347;28;20464;-67
2023/09/04 06:23:39;;;;;;;13.80;7.90;;;;;;;;;;5092326;28;20128;-66
2023/09/04 06:26:07;;;;;;;13.27;8.48;;;;;;;;;;5093048;28;20121;-67
2023/09/04 06:28:33;;;;;;;14.20;8.80;;;;;;;;;;5092286;28;20047;-66
2023/09/04 06:31:00;;;;;;;13.43;7.80;;;;;;;;;;5092649;28;20381;-69
2023/09/04 06:33:27;;;;;;;12.98;7.03;;;;;;;;;;5092147;28;20040;-67
2023/09/04 06:35:57;;;;;;;10.02;7.40;;;;;;;;;;5092428;28;20044;-67
2023/09/04 06:38:24;;;;;;;13.32;7.65;;;;;;;;;;5092310;28;20389;-67
2023/09/04 06:40:57;;;;;;;15.05;8.05;;;;;;;;;;5091761;28;20443;-66
2023/09/04 06:43:24;;;;;;;9.93;7.22;;;;;;;;;;5091128;28;20093;-66
2023/09/04 06:45:51;;;;;;;9.93;6.32;;;;;;;;;;5091919;28;20127;-67
2023/09/04 06:48:18;;;;;;;11.85;7.55;;;;;;;;;;5092457;28;20044;-66
2023/09/04 06:50:44;;;;;;;10.50;7.40;;;;;;;;;;5092015;28;20051;-67
2023/09/04 06:53:11;;;;;;;11.88;6.93;;;;;;;;;;5090461;28;20040;-67
2023/09/04 06:55:37;;;;;;;10.30;6.25;;;;;;;;;;5091837;28;20130;-67
2023/09/04 06:58:03;;;;;;;9.65;6.75;;;;;;;;;;5092167;28;20089;-66
2023/09/04 07:00:30;;;;;;;10.35;5.65;;;;;;;;;;5091166;28;20143;-69
2023/09/04 07:02:57;;;;;;;10.32;6.10;;;;;;;;;;5091816;28;20123;-67
2023/09/04 07:05:24;;;;;;;12.27;6.57;;;;;;;;;;5091282;28;20048;-66
2023/09/04 07:07:50;;;;;;;9.95;6.85;;;;;;;;;;5091453;28;20101;-65
2023/09/04 07:10:17;;;;;;;13.15;5.28;;;;;;;;;;5090965;28;20127;-68
2023/09/04 07:12:43;;;;;;;8.45;6.18;;;;;;;;;;5090949;28;20082;-68
2023/09/04 07:15:10;;;;;;;10.38;5.32;;;;;;;;;;5091485;28;20150;-65
2023/09/04 07:17:36;;;;;;;12.20;6.05;;;;;;;;;;5091152;28;20093;-66
2023/09/04 07:20:04;;;;;;;7.68;5.00;;;;;;;;;;5091112;28;20046;-65
2023/09/04 07:22:30;;;;;;;9.75;5.25;;;;;;;;;;5091384;28;20044;-66
2023/09/04 07:24:57;;;;;;;10.25;6.20;;;;;;;;;;5091184;28;20136;-66
2023/09/04 07:27:25;;;;;;;12.10;5.97;;;;;;;;;;5090963;28;20083;-67
2023/09/04 07:29:52;;;;;;;7.22;5.22;;;;;;;;;;5090839;28;20051;-67
2023/09/04 07:32:18;;;;;;;10.05;5.45;;;;;;;;;;5090725;28;20516;-66
2023/09/04 07:34:44;;;;;;;9.45;4.88;;;;;;;;;;5090901;28;20438;-66
2023/09/04 07:37:11;;;;;;;8.18;4.57;;;;;;;;;;5089860;28;20044;-66
2023/09/04 07:39:37;;;;;;;10.05;4.85;;;;;;;;;;5090929;28;20048;-65
2023/09/04 07:42:05;;;;;;;13.13;3.92;;;;;;;;;;5090593;28;20048;-66
2023/09/04 07:44:31;;;;;;;5.93;4.43;;;;;;;;;;5090490;28;20059;-66
2023/09/04 07:46:58;;;;;;;6.43;4.35;;;;;;;;;;5091403;28;20048;-66
2023/09/04 07:49:24;;;;;;;7.82;3.70;;;;;;;;;;5090114;28;20067;-66
2023/09/04 07:51:53;;;;;;;6.63;3.58;;;;;;;;;;5091106;28;20040;-65
2023/09/04 07:54:21;;;;;;;7.50;3.60;;;;;;;;;;5089966;28;20044;-65
2023/09/04 07:56:47;;;;;;;6.72;3.22;;;;;;;;;;5090766;28;20047;-66
2023/09/04 07:59:14;;;;;;;6.88;3.55;;;;;;;;;;5089932;28;20078;-67
2023/09/04 08:01:41;;;;;;;4.97;3.00;;;;;;;;;;5090906;28;20127;-66
2023/09/04 08:04:08;;;;;;;8.63;3.05;;;;;;;;;;5090004;28;20048;-67
2023/09/04 08:06:34;;;;;;;7.53;2.97;;;;;;;;;;5090563;28;20049;-65
2023/09/04 08:09:01;;;;;;;9.70;3.85;;;;;;;;;;5089877;28;20070;-66
2023/09/04 08:11:27;;;;;;;6.68;2.47;;;;;;;;;;5090428;28;20043;-66
2023/09/04 08:13:54;;;;;;;11.55;3.35;;;;;;;;;;5090014;28;20443;-66
2023/09/04 08:16:20;;;;;;;5.97;2.90;;;;;;;;;;5090163;28;20442;-67
2023/09/04 08:18:47;;;;;;;3.85;2.28;;;;;;;;;;5090280;28;20044;-66
2023/09/04 08:21:13;;;;;;;8.10;2.13;;;;;;;;;;5089997;28;20116;-65
2023/09/04 08:23:40;;;;;;;3.20;1.75;;;;;;;;;;5090085;28;20123;-66
2023/09/04 08:26:06;;;;;;;5.40;2.38;;;;;;;;;;5090081;28;20078;-65
2023/09/04 08:28:33;;;;;;;5.82;1.90;;;;;;;;;;5090286;28;20036;-66
2023/09/04 08:31:00;;;;;;;3.13;1.92;;;;;;;;;;5089400;28;20404;-66
2023/09/04 08:33:26;;;;;;;4.72;2.67;;;;;;;;;;5090209;28;20048;-66
2023/09/04 08:35:55;;;;;;;4.05;2.70;;;;;;;;;;5089659;28;20229;-66
2023/09/04 08:38:22;;;;;;;4.68;3.25;;;;;;;;;;5090098;28;20131;-67
2023/09/04 08:40:48;;;;;;;5.60;2.42;;;;;;;;;;5088313;28;20468;-67
2023/09/04 08:43:16;;;;;;;5.07;2.83;;;;;;;;;;5089859;28;20040;-68
2023/09/04 08:45:42;;;;;;;3.35;1.85;;;;;;;;;;5089936;28;20052;-67
2023/09/04 08:48:11;;;;;;;5.05;2.10;;;;;;;;;;5092197;28;20083;-68
2023/09/04 08:50:37;;;;;;;5.65;2.17;;;;;;;;;;5073986;28;20485;-67
2023/09/04 08:53:04;;;;;;;5.90;2.40;;;;;;;;;;5077265;28;20043;-65
2023/09/04 08:55:33;;;;;;;3.65;1.85;;;;;;;;;;5094069;28;20104;-67
2023/09/04 08:57:59;;;;;;;3.75;1.88;;;;;;;;;;5093628;28;20123;-68
2023/09/04 09:00:26;;;;;;;2.35;1.50;;;;;;;;;;5093859;28;20461;-67
2023/09/04 09:02:55;;;;;;;3.47;1.60;;;;;;;;;;5093488;28;20097;-67
2023/09/04 09:05:24;;;;;;;1.92;1.23;;;;;;;;;;5093721;28;20487;-67
2023/09/04 09:07:51;;;;;;;4.28;1.80;;;;;;;;;;5092273;28;20048;-66
2023/09/04 09:10:19;;;;;;;2.90;1.42;;;;;;;;;;5093364;28;20456;-67
2023/09/04 09:12:46;;;;;;;6.30;1.20;;;;;;;;;;5093360;28;20689;-65
2023/09/04 09:15:14;;;;;;;3.60;1.33;;;;;;;;;;5092930;28;20040;-65
2023/09/04 09:17:53;;;;;;;4.28;1.20;;;;;;;;;;5093354;28;20472;-65
2023/09/04 09:20:31;;;;;;;4.57;2.45;;;;;;;;;;5092808;28;20055;-65
2023/09/04 09:23:01;;;;;;;4.60;1.77;;;;;;;;;;5093712;28;20040;-65
2023/09/04 09:25:28;;;;;;;4.00;1.73;;;;;;;;;;5092948;28;20071;-64
2023/09/04 09:27:58;;;;;;;3.53;1.42;;;;;;;;;;5093416;28;20102;-67
2023/09/04 09:30:24;;;;;;;4.25;1.52;;;;;;;;;;5092283;28;20127;-67
2023/09/04 09:32:52;;;;;;;3.30;1.48;;;;;;;;;;5093441;28;20120;-67
2023/09/04 09:35:20;;;;;;;5.40;1.88;;;;;;;;;;5092773;28;20055;-64
2023/09/04 09:37:46;;;;;;;3.17;1.80;;;;;;;;;;5093379;28;20083;-68
2023/09/04 09:40:14;;;;;;;4.35;1.70;;;;;;;;;;5092774;28;20036;-67
2023/09/04 09:42:41;;;;;;;3.35;1.58;;;;;;;;;;5092737;28;20036;-67
2023/09/04 09:45:07;;;;;;;3.30;1.83;;;;;;;;;;5092678;28;20101;-65
2023/09/04 09:47:34;;;;;;;2.15;1.33;;;;;;;;;;5091429;28;20070;-68
2023/09/04 09:50:02;;;;;;;5.18;1.63;;;;;;;;;;5093116;28;20056;-66
2023/09/04 09:52:29;;;;;;;3.25;1.70;;;;;;;;;;5091306;28;20127;-67
2023/09/04 09:54:55;;;;;;;3.40;1.55;;;;;;;;;;5092794;28;20147;-67
2023/09/04 09:57:24;;;;;;;2.10;1.23;;;;;;;;;;5092530;28;20132;-66
2023/09/04 09:59:50;;;;;;;5.05;1.50;;;;;;;;;;5092205;28;20115;-68
2023/09/04 10:02:18;;;;;;;5.15;2.30;;;;;;;;;;5091844;28;20120;-65
2023/09/04 10:04:45;;;;;;;4.90;1.90;;;;;;;;;;5092783;28;20094;-65
2023/09/04 10:07:17;;;;;;;2.42;1.30;;;;;;;;;;5092224;28;20046;-66
2023/09/04 10:09:45;;;;;;;2.70;1.52;;;;;;;;;;5092413;28;20044;-66
2023/09/04 10:12:16;;;;;;;1.95;1.35;;;;;;;;;;5092362;28;20036;-66
2023/09/04 10:14:44;;;;;;;3.53;1.48;;;;;;;;;;5091731;28;20482;-65
2023/09/04 10:17:23;;;;;;;3.97;1.35;;;;;;;;;;5091053;28;20101;-69
2023/09/04 10:19:51;;;;;;;2.70;1.33;;;;;;;;;;5092016;28;20036;-67
2023/09/04 10:22:24;;;;;;;4.63;1.38;;;;;;;;;;5092777;28;20523;-67
2023/09/04 10:24:53;;;;;;;3.55;1.23;;;;;;;;;;5091827;28;20116;-68
2023/09/04 10:27:22;;;;;;;5.05;1.40;;;;;;;;;;5092650;28;20469;-65
2023/09/04 10:30:04;;;;;;;4.88;1.23;;;;;;;;;;5091601;28;20071;-65
2023/09/04 10:32:31;;;;;;;7.72;1.55;;;;;;;;;;5092101;28;20044;-68
2023/09/04 10:34:57;;;;;;;3.15;1.20;;;;;;;;;;5091429;28;20040;-66
2023/09/04 10:37:26;;;;;;;4.47;2.08;;;;;;;;;;5091952;28;20452;-65
2023/09/04 10:39:53;;;;;;;3.60;1.60;;;;;;;;;;5092245;28;20371;-65
2023/09/04 10:42:27;;;;;;;3.10;1.40;;;;;;;;;;5091712;28;20040;-65
2023/09/04 10:44:56;;;;;;;2.63;1.43;;;;;;;;;;5092078;28;20043;-67
2023/09/04 10:47:22;;;;;;;5.68;1.70;;;;;;;;;;5091438;28;20127;-66
2023/09/04 10:49:49;;;;;;;2.20;1.52;;;;;;;;;;5091410;28;20365;-65
2023/09/04 10:52:16;;;;;;;2.17;1.20;;;;;;;;;;5091234;28;20046;-66
2023/09/04 10:54:42;;;;;;;5.45;1.67;;;;;;;;;;5091573;28;20094;-65
2023/09/04 10:57:13;;;;;;;2.85;1.63;;;;;;;;;;5091075;28;20461;-66
2023/09/04 10:59:52;;;;;;;5.28;2.35;;;;;;;;;;5091517;28;20048;-66
2023/09/04 11:02:29;;;;;;;3.42;1.10;;;;;;;;;;5090787;28;20044;-68
2023/09/04 11:04:56;;;;;;;4.15;2.00;;;;;;;;;;5090686;28;20039;-67
2023/09/04 11:07:24;;;;;;;5.07;2.03;;;;;;;;;;5089711;28;20487;-67
2023/09/04 11:09:51;;;;;;;5.00;1.25;;;;;;;;;;5090669;28;20036;-65
2023/09/04 11:12:18;;;;;;;1.88;1.02;;;;;;;;;;5090469;28;20074;-67
2023/09/04 11:14:45;;;;;;;3.03;1.20;;;;;;;;;;5090369;28;20036;-66
2023/09/04 11:17:14;;;;;;;2.17;1.10;;;;;;;;;;5091251;28;20135;-66
2023/09/04 11:19:41;;;;;;;7.03;2.15;;;;;;;;;;5090526;28;20040;-66
2023/09/04 11:22:21;;;;;;;5.72;1.58;;;;;;;;;;5091076;28;20071;-66
2023/09/04 11:24:49;;;;;;;2.05;1.38;;;;;;;;;;5089948;28;20071;-65
2023/09/04 11:27:16;;;;;;;5.30;1.10;;;;;;;;;;5090864;28;20047;-66
2023/09/04 11:29:43;;;;;;;3.03;1.25;;;;;;;;;;5089937;28;20499;-67
2023/09/04 11:32:10;;;;;;;6.25;1.33;;;;;;;;;;5090207;28;20452;-66
2023/09/04 11:34:36;;;;;;;5.80;1.15;;;;;;;;;;5090082;28;20048;-67
2023/09/04 11:37:03;;;;;;;4.47;1.30;;;;;;;;;;5090682;28;20508;-67
2023/09/04 11:39:31;;;;;;;1.92;1.00;;;;;;;;;;5090352;28;20076;-66
2023/09/04 11:41:57;;;;;;;3.30;1.30;;;;;;;;;;5090448;28;20090;-66
2023/09/04 11:44:30;;;;;;;3.67;1.40;;;;;;;;;;5090293;28;20039;-67
2023/09/04 11:46:56;;;;;;;3.20;1.60;;;;;;;;;;5090095;28;20137;-66
2023/09/04 11:49:22;;;;;;;6.32;2.13;;;;;;;;;;5090429;28;20067;-67
2023/09/04 11:51:50;;;;;;;5.72;1.20;;;;;;;;;;5089751;28;20444;-67
2023/09/04 11:54:31;;;;;;;6.85;1.50;;;;;;;;;;5089819;28;20492;-65
2023/09/04 11:56:59;;;;;;;3.65;1.20;;;;;;;;;;5089479;28;20130;-67
2023/09/04 11:59:25;;;;;;;3.42;1.40;;;;;;;;;;5079613;28;20055;-66
2023/09/04 12:01:51;;;;;;;5.80;1.50;;;;;;;;;;5089794;28;20075;-66
2023/09/04 12:04:18;;;;;;;3.72;1.77;;;;;;;;;;5089769;28;20039;-66
2023/09/04 12:06:45;;;;;;;4.60;1.35;;;;;;;;;;5089638;28;20101;-66
2023/09/04 12:09:12;;;;;;;9.43;1.67;;;;;;;;;;5088940;28;20052;-66
2023/09/04 12:11:38;;;;;;;5.68;1.40;;;;;;;;;;5090022;28;20040;-66
2023/09/04 12:14:06;;;;;;;3.45;1.23;;;;;;;;;;5089121;28;20071;-67
2023/09/04 12:16:32;;;;;;;3.50;0.77;;;;;;;;;;5089773;28;20058;-66
2023/09/04 12:18:59;;;;;;;4.75;1.50;;;;;;;;;;5089259;28;20074;-67
2023/09/04 12:21:26;;;;;;;3.38;1.30;;;;;;;;;;5089899;28;20044;-67
2023/09/04 12:23:54;;;;;;;2.30;1.10;;;;;;;;;;5088791;28;20415;-67
2023/09/04 12:26:21;;;;;;;6.60;2.00;;;;;;;;;;5089596;28;20057;-66
2023/09/04 12:28:47;;;;;;;2.05;0.90;;;;;;;;;;5088533;28;20115;-66
2023/09/04 12:31:15;;;;;;;3.63;1.25;;;;;;;;;;5089310;28;20127;-67
2023/09/04 12:33:44;;;;;;;3.20;1.52;;;;;;;;;;5088328;28;20286;-66
2023/09/04 12:36:11;;;;;;;2.40;1.10;;;;;;;;;;5089050;28;20032;-66
2023/09/04 12:38:38;;;;;;;1.92;1.20;;;;;;;;;;5089041;28;20127;-66
2023/09/04 12:41:04;;;;;;;2.25;1.13;;;;;;;;;;5088982;28;20040;-66
2023/09/04 12:43:31;;;;;;;2.25;1.05;;;;;;;;;;5089676;28;20051;-66
2023/09/04 12:45:57;;;;;;;1.83;1.17;;;;;;;;;;5088951;28;20036;-66
2023/09/04 12:48:24;;;;;;;5.82;1.92;;;;;;;;;;5088939;28;20047;-67
2023/09/04 12:50:50;;;;;;;2.90;1.10;;;;;;;;;;5088687;28;20419;-66
2023/09/04 12:53:17;;;;;;;3.58;1.25;;;;;;;;;;5089007;28;20123;-66
2023/09/04 12:55:43;;;;;;;1.40;0.80;;;;;;;;;;5089106;28;20146;-67
2023/09/04 12:58:11;;;;;;;3.97;1.55;;;;;;;;;;5088814;28;20076;-67
2023/09/04 13:00:38;;;;;;;3.53;1.15;;;;;;;;;;5089073;28;20152;-66
2023/09/04 13:03:04;;;;;;;6.25;1.45;;;;;;;;;;5089778;28;20044;-67
2023/09/04 13:05:32;;;;;;;10.52;2.78;;;;;;;;;;5088717;28;20044;-66
2023/09/04 13:07:59;;;;;;;3.85;1.15;;;;;;;;;;5089162;28;20128;-67
2023/09/04 13:10:25;;;;;;;3.67;1.30;;;;;;;;;;5087751;28;20097;-67
2023/09/04 13:12:52;;;;;;;2.92;1.60;;;;;;;;;;5089118;28;20101;-66
2023/09/04 13:15:18;;;;;;;3.58;1.35;;;;;;;;;;5089338;28;20052;-66
2023/09/04 13:17:45;;;;;;;2.33;1.25;;;;;;;;;;5087555;28;20515;-67
2023/09/04 13:20:12;;;;;;;3.53;1.50;;;;;;;;;;5088972;28;20392;-66
2023/09/04 13:22:42;;;;;;;4.10;2.35;;;;;;;;;;5088911;28;20036;-67
2023/09/04 13:25:08;;;;;;;;;;;;;;;;;;5089455;28;20046;-67
2023/09/04 13:27:36;;;;;;;4.20;1.05;;;;;;;;;;5089057;28;19916;-66
2023/09/04 13:30:03;;;;;;;6.57;1.70;;;;;;;;;;5088706;28;20499;-66
2023/09/04 13:32:30;;;;;;;6.25;1.98;;;;;;;;;;5089088;28;20128;-67
2023/09/04 13:34:57;;;;;;;12.25;3.25;;;;;;;;;;5091075;28;20123;-67
2023/09/04 13:37:24;;;;;;;6.35;1.60;;;;;;;;;;5092700;28;20136;-67
2023/09/04 13:39:50;;;;;;;13.77;2.55;;;;;;;;;;5092331;28;20444;-67
2023/09/04 13:42:20;;;;;;;20.30;4.45;;;;;;;;;;5091658;28;20044;-67
2023/09/04 13:44:46;;;;;;;3.25;0.98;;;;;;;;;;5091987;28;20479;-67
2023/09/04 13:47:12;;;;;;;3.10;1.63;;;;;;;;;;5093224;28;20404;-67
2023/09/04 13:49:39;;;;;;;6.03;4.13;;;;;;;;;;5092267;28;20097;-68
2023/09/04 13:52:05;;;;;;;2.15;1.35;;;;;;;;;;5093094;28;20040;-67
2023/09/04 13:54:32;;;;;;;5.53;1.35;;;;;;;;;;5092459;28;20535;-66
2023/09/04 13:56:58;;;;;;;3.97;1.10;;;;;;;;;;5092878;28;20163;-67
2023/09/04 13:59:26;;;;;;;2.40;1.00;;;;;;;;;;5085353;28;20036;-69
2023/09/04 14:01:52;;;;;;;3.53;1.20;;;;;;;;;;5092856;28;20035;-67
2023/09/04 14:04:19;;;;;;;1.75;0.80;;;;;;;;;;5091894;28;20455;-68
2023/09/04 14:06:45;;;;;;;2.55;0.90;;;;;;;;;;5092991;28;20048;-68
2023/09/04 14:09:12;;;;;;;2.40;1.00;;;;;;;;;;5092081;28;20036;-68
2023/09/04 14:11:38;;;;;;;3.75;0.95;;;;;;;;;;5092386;28;20086;-68
2023/09/04 14:14:04;;;;;;;4.80;1.40;;;;;;;;;;5092062;28;20111;-66
2023/09/04 14:16:31;;;;;;;2.80;1.30;;;;;;;;;;5092208;28;20534;-65
2023/09/04 14:18:57;;;;;;;2.95;1.10;;;;;;;;;;5091573;28;20119;-65
2023/09/04 14:21:33;;;;;;;1.92;1.02;;;;;;;;;;5092150;28;20044;-66
2023/09/04 14:23:59;;;;;;;4.15;1.58;;;;;;;;;;5091878;28;20422;-66
2023/09/04 14:26:26;;;;;;;5.72;1.10;;;;;;;;;;5092047;28;20127;-69
2023/09/04 14:28:52;;;;;;;2.03;1.05;;;;;;;;;;5091999;28;20044;-67
2023/09/04 14:31:19;;;;;;;1.65;0.80;;;;;;;;;;5091802;28;20079;-66
2023/09/04 14:33:46;;;;;;;2.80;0.80;;;;;;;;;;5092341;28;20367;-67
2023/09/04 14:36:13;;;;;;;5.68;1.52;;;;;;;;;;5092074;28;20046;-65
2023/09/04 14:38:40;;;;;;;8.00;1.80;;;;;;;;;;5091533;28;20442;-69
2023/09/04 14:41:17;;;;;;;2.17;1.27;;;;;;;;;;5091472;28;20036;-66